createdAt,value
2019-05-08T00:00:46.688Z,4.70
2019-05-08T00:03:23.895Z,5.27
2019-05-08T00:05:53.835Z,5.17
2019-05-08T00:08:23.779Z,5.00
2019-05-08T00:10:53.825Z,4.93
2019-05-08T00:13:23.616Z,5.20
2019-05-08T00:15:58.686Z,5.40
2019-05-08T00:18:28.548Z,5.20
2019-05-08T00:20:58.503Z,5.77
2019-05-08T00:23:28.346Z,5.47
2019-05-08T00:25:58.301Z,5.33
2019-05-08T00:28:28.542Z,5.57
2019-05-08T00:30:58.784Z,5.33
2019-05-08T00:33:35.178Z,5.50
2019-05-08T00:36:05.123Z,5.30
2019-05-08T00:38:35.003Z,5.30
2019-05-08T00:41:04.961Z,5.10
2019-05-08T00:43:35.177Z,5.57
2019-05-08T00:46:07.337Z,5.10
2019-05-08T00:48:37.195Z,5.37
2019-05-08T00:51:07.478Z,5.90
2019-05-08T00:53:38.936Z,5.50
2019-05-08T00:56:13.443Z,5.27
2019-05-08T00:58:46.991Z,5.47
2019-05-08T01:01:32.218Z,4.63
2019-05-08T01:04:02.500Z,5.03
2019-05-08T01:06:32.424Z,5.10
2019-05-08T01:09:02.317Z,4.87
2019-05-08T01:11:34.219Z,5.23
2019-05-08T01:14:04.229Z,5.00
2019-05-08T01:16:34.171Z,5.10
2019-05-08T01:19:04.044Z,5.17
2019-05-08T01:21:34.461Z,5.23
2019-05-08T01:24:04.396Z,5.33
2019-05-08T01:26:34.339Z,5.33
2019-05-08T01:29:04.272Z,4.90
2019-05-08T01:31:34.208Z,4.80
2019-05-08T01:34:04.071Z,4.93
2019-05-08T01:36:34.269Z,5.40
2019-05-08T01:39:24.485Z,4.50
2019-05-08T01:41:54.415Z,5.40
2019-05-08T01:44:24.423Z,4.83
2019-05-08T01:47:12.293Z,5.30
2019-05-08T01:49:42.713Z,5.07
2019-05-08T01:52:12.911Z,5.20
2019-05-08T01:54:43.003Z,5.30
2019-05-08T01:57:13.906Z,5.23
2019-05-08T01:59:43.699Z,6.07
2019-05-08T02:02:13.989Z,5.67
2019-05-08T02:04:44.026Z,5.73
2019-05-08T02:07:13.957Z,5.03
2019-05-08T02:09:43.823Z,4.53
2019-05-08T02:12:13.769Z,5.23
2019-05-08T02:14:43.713Z,4.63
2019-05-08T02:17:13.661Z,4.67
2019-05-08T02:19:43.609Z,5.13
2019-05-08T02:22:29.355Z,4.90
2019-05-08T02:25:08.706Z,5.20
2019-05-08T02:27:45.592Z,5.03
2019-05-08T02:30:15.631Z,5.07
2019-05-08T02:32:45.560Z,5.67
2019-05-08T02:35:15.494Z,5.27
2019-05-08T02:37:45.436Z,5.20
2019-05-08T02:40:15.369Z,5.53
2019-05-08T02:42:45.310Z,4.73
2019-05-08T02:45:15.457Z,5.60
2019-05-08T02:47:45.401Z,5.50
2019-05-08T02:50:15.278Z,5.50
2019-05-08T02:52:45.111Z,5.00
2019-05-08T02:55:15.332Z,5.57
2019-05-08T02:57:45.483Z,5.27
2019-05-08T03:00:15.688Z,5.40
2019-05-08T03:03:04.610Z,5.80
2019-05-08T03:05:35.321Z,5.20
2019-05-08T03:08:05.251Z,5.40
2019-05-08T03:10:35.453Z,5.33
2019-05-08T03:13:05.379Z,5.53
2019-05-08T03:15:35.362Z,5.50
2019-05-08T03:18:05.723Z,4.83
2019-05-08T03:20:35.931Z,5.03
2019-05-08T03:23:05.824Z,5.60
2019-05-08T03:25:41.460Z,5.40
2019-05-08T03:28:11.314Z,5.63
2019-05-08T03:30:43.766Z,5.23
2019-05-08T03:33:14.326Z,5.60
2019-05-08T03:35:44.780Z,5.30
2019-05-08T03:38:15.139Z,5.30
2019-05-08T03:40:45.173Z,4.97
2019-05-08T03:43:14.958Z,5.93
2019-05-08T03:46:03.617Z,5.27
2019-05-08T03:48:52.162Z,5.20
2019-05-08T03:51:22.120Z,5.10
2019-05-08T03:53:53.047Z,5.07
2019-05-08T03:56:23.085Z,5.43
2019-05-08T03:58:53.284Z,5.40
2019-05-08T04:01:23.871Z,5.60
2019-05-08T04:03:54.050Z,5.43
2019-05-08T04:06:24.301Z,5.97
2019-05-08T04:09:00.672Z,5.63
2019-05-08T04:11:32.593Z,4.70
2019-05-08T04:14:02.513Z,5.70
2019-05-08T04:17:00.494Z,5.20
2019-05-08T04:19:31.181Z,5.07
2019-05-08T04:22:01.071Z,5.17
2019-05-08T04:24:31.386Z,4.93
2019-05-08T04:27:01.468Z,5.50
2019-05-08T04:29:46.988Z,4.97
2019-05-08T04:32:03.948Z,4.73
2019-05-08T04:34:33.849Z,5.37
2019-05-08T04:37:04.121Z,5.63
2019-05-08T04:39:34.069Z,5.60
2019-05-08T04:42:03.948Z,4.90
2019-05-08T04:44:34.216Z,4.70
2019-05-08T04:47:13.057Z,5.17
2019-05-08T04:49:42.871Z,5.27
2019-05-08T04:52:12.792Z,5.20
2019-05-08T04:54:50.946Z,5.30
2019-05-08T04:57:20.693Z,5.00
2019-05-08T05:00:07.361Z,4.93
2019-05-08T05:02:22.336Z,5.33
2019-05-08T05:04:52.231Z,5.67
2019-05-08T05:07:23.079Z,5.07
2019-05-08T05:09:53.131Z,5.10
2019-05-08T05:12:24.133Z,5.77
2019-05-08T05:14:53.923Z,5.43
2019-05-08T05:17:24.077Z,4.77
2019-05-08T05:19:53.886Z,5.20
2019-05-08T05:22:23.740Z,4.77
2019-05-08T05:24:53.606Z,5.17
2019-05-08T05:27:23.549Z,5.20
2019-05-08T05:29:53.669Z,5.07
2019-05-08T05:32:23.533Z,5.77
2019-05-08T05:34:55.015Z,5.30
2019-05-08T05:37:26.676Z,4.53
2019-05-08T05:40:00.639Z,4.80
2019-05-08T05:42:39.905Z,4.90
2019-05-08T05:45:10.172Z,5.13
2019-05-08T05:47:40.396Z,5.80
2019-05-08T05:50:13.960Z,5.70
2019-05-08T05:52:42.226Z,7.47
2019-05-08T05:55:12.366Z,6.93
2019-05-08T05:57:42.336Z,6.47
2019-05-08T06:00:13.339Z,5.83
2019-05-08T06:02:43.199Z,5.70
2019-05-08T06:05:13.123Z,5.43
2019-05-08T06:07:43.010Z,5.63
2019-05-08T06:10:12.935Z,5.43
2019-05-08T06:12:43.781Z,5.07
2019-05-08T06:15:14.059Z,5.53
2019-05-08T06:17:54.834Z,6.30
2019-05-08T06:20:24.865Z,5.57
2019-05-08T06:22:55.019Z,5.77
2019-05-08T06:25:25.496Z,6.10
2019-05-08T06:27:55.442Z,6.33
2019-05-08T06:30:25.627Z,6.37
2019-05-08T06:32:55.854Z,5.80
2019-05-08T06:35:26.570Z,5.77
2019-05-08T06:37:56.517Z,6.40
2019-05-08T06:40:26.434Z,6.00
2019-05-08T06:43:01.834Z,6.23
2019-05-08T06:45:55.751Z,6.37
2019-05-08T06:48:29.354Z,6.37
2019-05-08T06:50:59.718Z,6.33
2019-05-08T06:53:36.908Z,6.63
2019-05-08T06:56:10.418Z,6.63
2019-05-08T06:58:40.179Z,6.50
2019-05-08T07:01:16.994Z,7.90
2019-05-08T07:03:50.245Z,7.10
2019-05-08T07:06:21.430Z,7.30
2019-05-08T07:08:51.366Z,7.20
2019-05-08T07:11:21.296Z,7.10
2019-05-08T07:13:51.968Z,7.07
2019-05-08T07:16:39.864Z,7.60
2019-05-08T07:19:20.358Z,7.20
2019-05-08T07:21:52.618Z,7.43
2019-05-08T07:24:22.590Z,7.37
2019-05-08T07:26:52.535Z,7.17
2019-05-08T07:29:24.218Z,7.00
2019-05-08T07:31:54.139Z,6.07
2019-05-08T07:34:24.067Z,6.63
2019-05-08T07:36:53.855Z,6.03
2019-05-08T07:39:24.882Z,6.23
2019-05-08T07:41:55.089Z,6.17
2019-05-08T07:44:29.531Z,6.80
2019-05-08T07:46:57.219Z,6.20
2019-05-08T07:49:29.109Z,6.13
2019-05-08T07:52:00.042Z,6.40
2019-05-08T07:54:30.453Z,6.67
2019-05-08T07:57:00.337Z,6.43
2019-05-08T07:59:30.173Z,6.60
2019-05-08T08:02:01.090Z,6.63
2019-05-08T08:04:34.814Z,6.50
2019-05-08T08:07:09.893Z,6.27
2019-05-08T08:09:40.604Z,6.67
2019-05-08T08:12:11.789Z,6.77
2019-05-08T08:14:42.800Z,7.20
2019-05-08T08:17:21.293Z,7.80
2019-05-08T08:19:51.038Z,7.20
2019-05-08T08:22:21.087Z,6.43
2019-05-08T08:24:50.943Z,7.33
2019-05-08T08:27:20.802Z,7.30
2019-05-08T08:29:50.655Z,6.43
2019-05-08T08:32:20.519Z,6.43
2019-05-08T08:34:50.599Z,7.33
2019-05-08T08:37:20.534Z,7.20
2019-05-08T08:39:50.487Z,7.20
2019-05-08T08:42:20.430Z,7.30
2019-05-08T08:44:50.787Z,8.07
2019-05-08T08:47:43.089Z,7.33
2019-05-08T08:50:19.350Z,7.17
2019-05-08T08:53:10.095Z,7.90
2019-05-08T08:55:40.057Z,7.60
2019-05-08T08:58:10.105Z,7.23
2019-05-08T09:00:41.877Z,7.70
2019-05-08T09:03:11.738Z,7.20
2019-05-08T09:05:41.672Z,7.70
2019-05-08T09:08:12.608Z,6.93
2019-05-08T09:10:42.765Z,7.33
2019-05-08T09:13:12.703Z,7.40
2019-05-08T09:15:42.895Z,7.80
2019-05-08T09:18:12.909Z,8.03
2019-05-08T09:20:42.950Z,8.50
2019-05-08T09:23:12.888Z,8.43
2019-05-08T09:25:42.724Z,8.57
2019-05-08T09:28:12.642Z,8.03
2019-05-08T09:30:44.068Z,9.50
2019-05-08T09:33:14.932Z,8.07
2019-05-08T09:35:44.824Z,10.47
2019-05-08T09:38:15.070Z,9.23
2019-05-08T09:40:44.876Z,8.53
2019-05-08T09:43:14.885Z,9.33
2019-05-08T09:45:45.095Z,10.40
2019-05-08T09:48:14.964Z,11.47
2019-05-08T09:50:45.204Z,9.90
2019-05-08T09:53:15.145Z,11.57
2019-05-08T09:55:44.990Z,10.93
2019-05-08T09:58:14.935Z,10.47
2019-05-08T10:00:54.495Z,10.27
2019-05-08T10:03:24.621Z,11.40
2019-05-08T10:05:54.949Z,10.77
2019-05-08T10:08:24.905Z,10.33
2019-05-08T10:10:54.842Z,11.27
2019-05-08T10:13:24.785Z,11.23
2019-05-08T10:15:54.717Z,11.10
2019-05-08T10:18:24.588Z,10.30
2019-05-08T10:20:54.991Z,9.17
2019-05-08T10:23:25.049Z,9.53
2019-05-08T10:25:55.097Z,10.70
2019-05-08T10:28:25.387Z,9.30
2019-05-08T10:31:00.848Z,11.67
2019-05-08T10:33:30.727Z,10.00
2019-05-08T10:36:07.930Z,9.90
2019-05-08T10:38:39.493Z,9.50
2019-05-08T10:41:16.878Z,9.90
2019-05-08T10:43:49.910Z,9.43
2019-05-08T10:46:20.252Z,9.57
2019-05-08T10:48:50.511Z,8.93
2019-05-08T10:51:20.465Z,8.80
2019-05-08T10:53:50.643Z,9.63
2019-05-08T10:56:20.519Z,9.97
2019-05-08T10:58:50.455Z,9.30
2019-05-08T11:01:20.392Z,8.40
2019-05-08T11:03:50.334Z,8.87
2019-05-08T11:06:45.441Z,8.53
2019-05-08T11:09:40.395Z,7.67
2019-05-08T11:12:30.058Z,9.20
2019-05-08T11:15:00.180Z,7.47
2019-05-08T11:17:30.499Z,7.83
2019-05-08T11:20:00.433Z,7.77
2019-05-08T11:22:31.178Z,8.80
2019-05-08T11:25:02.144Z,8.10
2019-05-08T11:27:32.495Z,8.23
2019-05-08T11:30:02.693Z,9.20
2019-05-08T11:32:34.134Z,7.80
2019-05-08T11:35:04.441Z,7.27
2019-05-08T11:37:34.428Z,7.70
2019-05-08T11:40:06.703Z,7.13
2019-05-08T11:42:54.922Z,7.80
2019-05-08T11:45:35.676Z,7.60
2019-05-08T11:48:07.745Z,7.40
2019-05-08T11:50:39.643Z,6.60
2019-05-08T11:53:11.119Z,7.90
2019-05-08T11:55:40.367Z,8.10
2019-05-08T11:58:12.624Z,7.33
2019-05-08T12:00:42.019Z,7.63
2019-05-08T12:03:11.874Z,8.03
2019-05-08T12:05:41.719Z,7.40
2019-05-08T12:08:11.607Z,8.57
2019-05-08T12:10:42.050Z,8.00
2019-05-08T12:13:11.927Z,8.87
2019-05-08T12:15:41.858Z,7.30
2019-05-08T12:18:11.648Z,6.93
2019-05-08T12:20:41.576Z,9.50
2019-05-08T12:23:11.745Z,8.07
2019-05-08T12:25:41.515Z,7.67
2019-05-08T12:28:20.364Z,8.60
2019-05-08T12:31:10.074Z,8.90
2019-05-08T12:33:49.768Z,9.57
2019-05-08T12:36:19.793Z,9.13
2019-05-08T12:38:49.667Z,8.83
2019-05-08T12:41:19.597Z,9.53
2019-05-08T12:43:50.505Z,8.83
2019-05-08T12:46:20.506Z,8.60
2019-05-08T12:48:50.369Z,8.57
2019-05-08T12:51:20.289Z,9.50
2019-05-08T12:53:55.023Z,8.50
2019-05-08T12:56:27.056Z,8.73
2019-05-08T12:58:56.990Z,9.40
2019-05-08T13:01:40.695Z,7.83
2019-05-08T13:04:03.713Z,9.20
2019-05-08T13:06:36.130Z,9.23
2019-05-08T13:09:15.786Z,8.97
2019-05-08T13:11:36.072Z,9.47
2019-05-08T13:14:06.123Z,9.10
2019-05-08T13:16:36.372Z,10.63
2019-05-08T13:19:06.332Z,10.03
2019-05-08T13:21:36.547Z,11.23
2019-05-08T13:24:06.405Z,10.33
2019-05-08T13:26:36.283Z,10.83
2019-05-08T13:29:06.584Z,11.83
2019-05-08T13:31:36.488Z,10.60
2019-05-08T13:34:06.327Z,10.63
2019-05-08T13:36:38.036Z,10.67
2019-05-08T13:39:09.780Z,11.17
2019-05-08T13:41:42.298Z,11.37
2019-05-08T13:44:20.022Z,10.83
2019-05-08T13:46:56.309Z,10.83
2019-05-08T13:49:25.777Z,11.90
2019-05-08T13:52:15.223Z,12.90
2019-05-08T13:54:44.287Z,12.10
2019-05-08T13:57:18.345Z,11.07
2019-05-08T13:59:46.365Z,13.87
2019-05-08T14:02:16.929Z,14.90
2019-05-08T14:04:50.408Z,13.57
2019-05-08T14:07:20.864Z,13.00
2019-05-08T14:09:51.117Z,12.40
2019-05-08T14:12:20.935Z,12.47
2019-05-08T14:14:50.871Z,13.10
2019-05-08T14:17:24.934Z,11.40
2019-05-08T14:19:55.456Z,11.83
2019-05-08T14:22:25.534Z,12.33
2019-05-08T14:24:55.374Z,11.60
2019-05-08T14:27:25.338Z,11.57
2019-05-08T14:29:55.176Z,11.53
2019-05-08T14:32:37.054Z,11.20
2019-05-08T14:35:10.035Z,12.40
2019-05-08T14:37:40.248Z,12.40
2019-05-08T14:40:11.146Z,11.23
2019-05-08T14:42:40.999Z,11.77
2019-05-08T14:45:11.050Z,12.30
2019-05-08T14:47:40.941Z,12.63
2019-05-08T14:50:10.935Z,10.90
2019-05-08T14:52:41.190Z,11.37
2019-05-08T14:55:11.413Z,10.10
2019-05-08T14:57:41.427Z,11.50
2019-05-08T15:00:11.895Z,11.30
2019-05-08T15:02:41.838Z,10.97
2019-05-08T15:05:12.017Z,9.63
2019-05-08T15:07:41.898Z,10.23
2019-05-08T15:10:12.223Z,11.20
2019-05-08T15:12:42.163Z,10.60
2019-05-08T15:15:12.106Z,11.00
2019-05-08T15:17:43.531Z,10.93
2019-05-08T15:20:13.793Z,10.23
2019-05-08T15:22:43.642Z,10.27
2019-05-08T15:25:13.971Z,10.23
2019-05-08T15:27:46.191Z,10.80
2019-05-08T15:30:37.521Z,10.83
2019-05-08T15:33:11.009Z,11.43
2019-05-08T15:35:40.882Z,10.17
2019-05-08T15:38:10.804Z,11.43
2019-05-08T15:40:40.754Z,10.97
2019-05-08T15:43:10.623Z,11.73
2019-05-08T15:45:41.032Z,12.50
2019-05-08T15:48:12.817Z,10.77
2019-05-08T15:50:42.769Z,11.80
2019-05-08T15:53:13.361Z,11.63
2019-05-08T15:55:43.320Z,13.10
2019-05-08T15:58:13.977Z,12.90
2019-05-08T16:00:44.253Z,11.93
2019-05-08T16:03:14.114Z,14.37
2019-05-08T16:05:44.045Z,12.73
2019-05-08T16:08:14.224Z,13.37
2019-05-08T16:10:44.285Z,13.13
2019-05-08T16:13:14.211Z,12.80
2019-05-08T16:15:44.155Z,16.00
2019-05-08T16:18:14.081Z,13.60
2019-05-08T16:20:44.019Z,13.20
2019-05-08T16:23:14.876Z,14.60
2019-05-08T16:25:45.406Z,13.03
2019-05-08T16:28:15.337Z,12.37
2019-05-08T16:31:07.921Z,13.70
2019-05-08T16:34:00.097Z,12.00
2019-05-08T16:36:42.516Z,12.67
2019-05-08T16:39:02.013Z,11.67
2019-05-08T16:41:33.769Z,11.40
2019-05-08T16:44:03.823Z,12.23
2019-05-08T16:46:40.389Z,11.47
2019-05-08T16:49:14.145Z,12.07
2019-05-08T16:51:44.069Z,11.77
2019-05-08T16:54:14.217Z,11.30
2019-05-08T16:56:44.617Z,10.30
2019-05-08T16:59:14.486Z,10.40
2019-05-08T17:01:44.975Z,10.80
2019-05-08T17:04:14.914Z,10.73
2019-05-08T17:06:59.337Z,9.67
2019-05-08T17:09:17.022Z,9.90
2019-05-08T17:11:46.796Z,9.27
2019-05-08T17:14:18.022Z,8.40
2019-05-08T17:16:48.182Z,8.13
2019-05-08T17:19:18.364Z,8.73
2019-05-08T17:22:19.619Z,8.97
2019-05-08T17:25:14.439Z,8.33
2019-05-08T17:28:06.267Z,8.13
2019-05-08T17:30:54.422Z,8.03
2019-05-08T17:33:24.538Z,7.90
2019-05-08T17:35:56.154Z,7.33
2019-05-08T17:38:34.933Z,7.30
2019-05-08T17:41:04.855Z,7.17
2019-05-08T17:43:35.068Z,7.40
2019-05-08T17:46:09.350Z,7.30
2019-05-08T17:48:39.404Z,6.87
2019-05-08T17:51:09.322Z,7.27
2019-05-08T17:53:39.237Z,6.90
2019-05-08T17:56:11.026Z,6.73
2019-05-08T17:58:40.717Z,6.50
2019-05-08T18:01:13.824Z,5.90
2019-05-08T18:03:44.122Z,5.53
2019-05-08T18:06:14.034Z,5.40
2019-05-08T18:08:43.983Z,5.20
2019-05-08T18:11:14.200Z,5.67
2019-05-08T18:13:44.496Z,7.13
2019-05-08T18:16:20.647Z,8.10
2019-05-08T18:18:53.333Z,7.87
2019-05-08T18:21:40.948Z,7.03
2019-05-08T18:24:30.436Z,6.70
2019-05-08T18:27:00.299Z,6.30
2019-05-08T18:29:36.181Z,6.53
2019-05-08T18:32:28.497Z,7.03
2019-05-08T18:34:58.854Z,6.83
2019-05-08T18:37:28.896Z,6.83
2019-05-08T18:39:58.845Z,7.00
2019-05-08T18:42:28.839Z,6.47
2019-05-08T18:44:59.158Z,6.50
2019-05-08T18:47:30.204Z,7.20
2019-05-08T18:50:00.067Z,7.03
2019-05-08T18:52:29.964Z,7.10
2019-05-08T18:55:16.245Z,7.10
2019-05-08T18:57:46.198Z,6.93
2019-05-08T19:00:24.055Z,7.33
2019-05-08T19:02:54.492Z,6.57
2019-05-08T19:05:24.656Z,8.10
2019-05-08T19:08:01.643Z,7.90
2019-05-08T19:10:27.587Z,7.90
2019-05-08T19:12:57.518Z,7.00
2019-05-08T19:15:27.487Z,6.40
2019-05-08T19:17:57.779Z,6.77
2019-05-08T19:20:46.094Z,6.63
2019-05-08T19:23:16.464Z,6.47
2019-05-08T19:25:46.377Z,6.97
2019-05-08T19:28:16.800Z,7.77
2019-05-08T19:30:47.438Z,7.37
2019-05-08T19:33:18.624Z,7.93
2019-05-08T19:35:48.842Z,6.60
2019-05-08T19:38:25.404Z,8.03
2019-05-08T19:41:04.723Z,7.53
2019-05-08T19:43:34.937Z,6.73
2019-05-08T19:46:05.579Z,6.53
2019-05-08T19:48:35.591Z,6.90
2019-05-08T19:51:05.554Z,6.60
2019-05-08T19:53:35.732Z,7.80
2019-05-08T19:56:05.710Z,7.23
2019-05-08T19:58:35.705Z,6.50
2019-05-08T20:01:07.199Z,6.10
2019-05-08T20:03:37.642Z,5.63
2019-05-08T20:06:07.595Z,5.57
2019-05-08T20:08:40.416Z,6.17
2019-05-08T20:11:11.008Z,5.47
2019-05-08T20:13:43.755Z,5.73
2019-05-08T20:16:16.443Z,6.60
2019-05-08T20:19:08.623Z,6.37
2019-05-08T20:21:49.393Z,5.30
2019-05-08T20:24:19.279Z,5.27
2019-05-08T20:26:49.545Z,5.07
2019-05-08T20:29:19.493Z,5.17
2019-05-08T20:31:49.693Z,4.60
2019-05-08T20:34:29.716Z,4.43
2019-05-08T20:36:51.223Z,4.27
2019-05-08T20:39:24.228Z,4.20
2019-05-08T20:41:53.853Z,3.40
2019-05-08T20:44:23.714Z,3.43
2019-05-08T20:46:54.305Z,2.83
2019-05-08T20:49:24.504Z,2.70
2019-05-08T20:51:55.144Z,2.60
2019-05-08T20:54:25.401Z,2.70
2019-05-08T20:56:55.282Z,2.10
2019-05-08T20:59:25.208Z,2.60
2019-05-08T21:01:55.072Z,2.70
2019-05-08T21:04:25.031Z,2.90
2019-05-08T21:06:55.419Z,2.90
2019-05-08T21:09:25.378Z,3.73
2019-05-08T21:12:03.434Z,3.37
2019-05-08T21:14:33.596Z,3.17
2019-05-08T21:17:04.124Z,2.80
2019-05-08T21:19:35.688Z,2.50
2019-05-08T21:22:29.379Z,2.30
2019-05-08T21:25:01.270Z,2.20
2019-05-08T21:27:30.954Z,1.97
2019-05-08T21:30:00.886Z,2.57
2019-05-08T21:32:33.058Z,2.10
2019-05-08T21:35:04.307Z,2.20
2019-05-08T21:37:34.372Z,2.70
2019-05-08T21:40:05.379Z,1.90
2019-05-08T21:42:36.582Z,1.87
2019-05-08T21:45:06.628Z,2.40
2019-05-08T21:47:36.401Z,2.03
2019-05-08T21:50:06.905Z,2.33
2019-05-08T21:52:48.860Z,2.43
2019-05-08T21:55:19.532Z,2.07
2019-05-08T21:57:53.638Z,2.17
2019-05-08T22:00:45.627Z,2.10
2019-05-08T22:03:34.287Z,2.30
2019-05-08T22:06:23.226Z,2.13
2019-05-08T22:09:14.225Z,2.00
2019-05-08T22:12:03.658Z,2.50
2019-05-08T22:14:34.534Z,2.10
2019-05-08T22:17:05.830Z,1.90
2019-05-08T22:19:35.825Z,1.90
2019-05-08T22:22:05.761Z,1.70
2019-05-08T22:24:35.636Z,1.47
2019-05-08T22:27:05.645Z,1.37
2019-05-08T22:29:35.548Z,1.30
2019-05-08T22:32:24.264Z,1.77
2019-05-08T22:35:20.523Z,1.33
2019-05-08T22:38:13.364Z,1.70
2019-05-08T22:40:44.520Z,1.67
2019-05-08T22:43:34.826Z,1.63
2019-05-08T22:46:05.601Z,1.60
2019-05-08T22:48:36.197Z,1.70
2019-05-08T22:51:06.392Z,1.73
2019-05-08T22:53:36.308Z,1.50
2019-05-08T22:56:07.203Z,1.50
2019-05-08T22:58:37.183Z,1.83
2019-05-08T23:01:07.100Z,1.70
2019-05-08T23:03:37.419Z,2.00
2019-05-08T23:06:08.077Z,1.77
2019-05-08T23:08:44.210Z,1.80
2019-05-08T23:11:14.344Z,1.73
2019-05-08T23:13:47.226Z,1.73
2019-05-08T23:16:16.013Z,2.00
2019-05-08T23:18:45.888Z,2.00
2019-05-08T23:21:15.841Z,1.67
2019-05-08T23:23:45.772Z,1.60
2019-05-08T23:26:15.699Z,1.87
2019-05-08T23:28:45.856Z,1.57
2019-05-08T23:31:16.046Z,1.80
2019-05-08T23:33:45.891Z,1.87
2019-05-08T23:36:24.736Z,1.80
2019-05-08T23:38:54.987Z,1.87
2019-05-08T23:41:24.852Z,2.10
2019-05-08T23:44:23.784Z,1.83
2019-05-08T23:47:13.687Z,1.90
2019-05-08T23:49:44.188Z,1.70
2019-05-08T23:52:15.428Z,1.60
2019-05-08T23:54:45.684Z,1.83
2019-05-08T23:57:15.622Z,1.97
2019-05-08T23:59:45.591Z,2.00
